createdAt,value
2022-08-19T00:02:31.661Z,12.77
2022-08-19T00:05:43.697Z,13.90
2022-08-19T00:08:46.892Z,13.33
2022-08-19T00:11:50.942Z,13.77
2022-08-19T00:14:55.188Z,14.47
2022-08-19T00:17:58.082Z,15.73
2022-08-19T00:21:01.589Z,15.00
2022-08-19T00:24:04.994Z,14.90
2022-08-19T00:27:26.312Z,14.23
2022-08-19T00:30:31.085Z,14.47
2022-08-19T00:33:35.161Z,15.37
2022-08-19T00:36:38.541Z,15.13
2022-08-19T00:39:41.760Z,15.23
2022-08-19T00:42:45.943Z,15.50
2022-08-19T00:45:51.006Z,15.93
2022-08-19T00:48:54.038Z,15.83
2022-08-19T00:52:02.527Z,17.17
2022-08-19T00:55:09.613Z,17.60
2022-08-19T00:58:17.477Z,17.40
2022-08-19T01:01:22.185Z,17.63
2022-08-19T01:04:25.109Z,17.13
2022-08-19T01:07:28.052Z,17.10
2022-08-19T01:10:42.676Z,18.13
2022-08-19T01:13:49.957Z,16.37
2022-08-19T01:16:57.875Z,16.27
2022-08-19T01:20:00.931Z,16.67
2022-08-19T01:23:05.601Z,16.67
2022-08-19T01:26:09.318Z,16.23
2022-08-19T01:29:13.241Z,16.80
2022-08-19T01:32:32.069Z,17.00
2022-08-19T01:35:37.743Z,16.60
2022-08-19T01:38:44.195Z,17.13
2022-08-19T01:41:47.454Z,18.00
2022-08-19T01:44:50.906Z,18.83
2022-08-19T01:48:01.550Z,16.90
2022-08-19T01:51:06.201Z,19.90
2022-08-19T01:54:10.676Z,18.80
2022-08-19T01:57:16.108Z,20.70
2022-08-19T02:00:23.400Z,18.63
2022-08-19T02:03:26.299Z,17.57
2022-08-19T02:06:30.514Z,18.70
2022-08-19T02:09:38.290Z,17.47
2022-08-19T02:12:41.464Z,16.33
2022-08-19T02:15:55.231Z,17.37
2022-08-19T02:18:58.937Z,17.13
2022-08-19T02:22:02.247Z,16.77
2022-08-19T02:25:07.179Z,16.03
2022-08-19T02:28:10.021Z,15.60
2022-08-19T02:31:14.097Z,17.67
2022-08-19T02:34:16.966Z,17.83
2022-08-19T02:37:37.574Z,18.33
2022-08-19T02:40:41.811Z,17.20
2022-08-19T02:44:26.644Z,16.53
2022-08-19T02:47:08.132Z,17.00
2022-08-19T02:50:11.575Z,17.13
2022-08-19T02:53:14.873Z,17.10
2022-08-19T02:56:19.353Z,16.93
2022-08-19T02:59:23.090Z,18.27
2022-08-19T03:02:26.258Z,17.03
2022-08-19T03:05:46.975Z,18.67
2022-08-19T03:08:52.117Z,18.60
2022-08-19T03:11:56.353Z,17.83
2022-08-19T03:15:01.693Z,18.70
2022-08-19T03:18:04.645Z,17.23
2022-08-19T03:21:08.087Z,16.47
2022-08-19T03:24:17.261Z,17.37
2022-08-19T03:27:21.478Z,16.43
2022-08-19T03:30:24.389Z,16.60
2022-08-19T03:33:28.797Z,16.50
2022-08-19T03:36:31.808Z,16.47
2022-08-19T03:39:40.800Z,17.00
2022-08-19T03:42:49.288Z,18.43
2022-08-19T03:46:05.586Z,17.60
2022-08-19T03:49:09.401Z,17.80
2022-08-19T03:52:12.387Z,16.77
2022-08-19T03:55:16.727Z,17.40
2022-08-19T03:58:31.221Z,17.73
2022-08-19T04:01:35.434Z,18.17
2022-08-19T04:04:40.725Z,17.77
2022-08-19T04:07:43.751Z,18.13
2022-08-19T04:10:46.800Z,17.27
2022-08-19T04:13:52.193Z,17.57
2022-08-19T04:16:55.411Z,17.63
2022-08-19T04:19:58.399Z,17.13
2022-08-19T04:23:03.548Z,17.87
2022-08-19T04:26:06.473Z,17.87
2022-08-19T04:29:15.494Z,17.43
2022-08-19T04:32:18.377Z,18.17
2022-08-19T04:35:24.852Z,17.87
2022-08-19T04:38:27.932Z,17.37
2022-08-19T04:41:48.585Z,18.03
2022-08-19T04:45:00.805Z,17.57
2022-08-19T04:48:26.567Z,17.33
2022-08-19T04:51:27.861Z,17.63
2022-08-19T04:54:37.717Z,18.00
2022-08-19T04:57:41.469Z,17.33
2022-08-19T05:00:45.760Z,18.10
2022-08-19T05:03:48.671Z,16.53
2022-08-19T05:06:53.133Z,17.20
2022-08-19T05:10:02.558Z,18.33
2022-08-19T05:13:05.637Z,17.23
2022-08-19T05:16:09.975Z,16.73
2022-08-19T05:19:30.624Z,17.17
2022-08-19T05:22:39.173Z,17.00
2022-08-19T05:25:42.818Z,16.90
2022-08-19T05:28:47.317Z,16.70
2022-08-19T05:31:52.683Z,15.67
2022-08-19T05:34:56.472Z,16.70
2022-08-19T05:38:02.738Z,16.13
2022-08-19T05:41:10.404Z,16.83
2022-08-19T05:44:13.249Z,16.93
2022-08-19T05:47:20.436Z,17.50
2022-08-19T05:50:23.548Z,16.43
2022-08-19T05:53:26.513Z,20.90
2022-08-19T05:56:31.620Z,20.43
2022-08-19T05:59:36.541Z,16.07
2022-08-19T06:02:43.493Z,17.00
2022-08-19T06:05:52.082Z,16.40
2022-08-19T06:08:55.197Z,16.77
2022-08-19T06:12:00.953Z,17.10
2022-08-19T06:15:07.609Z,16.07
2022-08-19T06:18:11.963Z,16.50
2022-08-19T06:21:15.200Z,17.23
2022-08-19T06:24:21.408Z,17.10
2022-08-19T06:27:24.856Z,15.83
2022-08-19T06:30:27.865Z,17.43
2022-08-19T06:33:34.950Z,17.67
2022-08-19T06:36:41.555Z,18.60
2022-08-19T06:39:46.676Z,17.73
2022-08-19T06:42:54.265Z,18.87
2022-08-19T06:45:59.939Z,16.67
2022-08-19T06:49:06.271Z,18.00
2022-08-19T06:52:13.742Z,18.60
2022-08-19T06:55:17.201Z,18.00
2022-08-19T06:58:21.869Z,17.07
2022-08-19T07:01:25.045Z,18.03
2022-08-19T07:04:32.577Z,17.20
2022-08-19T07:07:36.585Z,16.97
2022-08-19T07:10:42.769Z,18.97
2022-08-19T07:13:46.807Z,18.03
2022-08-19T07:16:52.416Z,19.23
2022-08-19T07:19:56.832Z,18.33
2022-08-19T07:22:59.769Z,18.00
2022-08-19T07:26:07.443Z,19.23
2022-08-19T07:29:12.661Z,18.90
2022-08-19T07:32:16.579Z,18.83
2022-08-19T07:35:21.453Z,19.40
2022-08-19T07:38:24.315Z,19.80
2022-08-19T07:41:32.332Z,18.60
2022-08-19T07:44:35.829Z,17.80
2022-08-19T07:47:48.734Z,19.90
2022-08-19T07:50:56.248Z,18.27
2022-08-19T07:53:59.203Z,18.80
2022-08-19T07:57:02.710Z,18.90
2022-08-19T08:00:07.546Z,20.00
2022-08-19T08:03:11.860Z,20.17
2022-08-19T08:06:38.434Z,19.00
2022-08-19T08:09:49.532Z,22.80
2022-08-19T08:13:09.183Z,20.13
2022-08-19T08:16:14.178Z,19.80
2022-08-19T08:19:20.724Z,20.70
2022-08-19T08:22:47.727Z,21.97
2022-08-19T08:25:51.027Z,22.67
2022-08-19T08:28:53.931Z,24.33
2022-08-19T08:31:59.855Z,20.50
2022-08-19T08:35:05.935Z,21.87
2022-08-19T08:38:13.979Z,22.40
2022-08-19T08:41:24.407Z,21.07
2022-08-19T08:44:42.473Z,24.07
2022-08-19T08:47:52.068Z,23.43
2022-08-19T08:50:58.191Z,23.47
2022-08-19T08:54:05.012Z,24.03
2022-08-19T08:57:14.231Z,23.43
2022-08-19T09:00:21.819Z,23.60
2022-08-19T09:03:27.736Z,22.77
2022-08-19T09:06:41.017Z,22.60
2022-08-19T09:09:48.596Z,25.93
2022-08-19T09:13:01.323Z,23.87
2022-08-19T09:16:09.574Z,25.03
2022-08-19T09:19:12.853Z,24.00
2022-08-19T09:22:26.134Z,23.17
2022-08-19T09:25:32.863Z,25.67
2022-08-19T09:28:35.843Z,24.60
2022-08-19T09:31:42.549Z,22.30
2022-08-19T09:34:50.797Z,23.57
2022-08-19T09:37:59.489Z,22.80
2022-08-19T09:41:08.644Z,21.57
2022-08-19T09:44:12.229Z,21.17
2022-08-19T09:47:16.658Z,21.73
2022-08-19T09:50:24.567Z,21.73
2022-08-19T09:53:29.775Z,22.10
2022-08-19T09:56:35.947Z,19.53
2022-08-19T09:59:43.770Z,20.70
2022-08-19T10:02:46.931Z,20.57
2022-08-19T10:05:54.511Z,21.87
2022-08-19T10:08:58.355Z,20.70
2022-08-19T10:12:04.564Z,19.57
2022-08-19T10:15:10.329Z,21.00
2022-08-19T10:18:13.484Z,22.27
2022-08-19T10:21:18.818Z,20.97
2022-08-19T10:24:25.845Z,23.20
2022-08-19T10:27:38.035Z,21.87
2022-08-19T10:30:43.817Z,23.27
2022-08-19T10:33:53.750Z,20.57
2022-08-19T10:37:01.314Z,22.17
2022-08-19T10:40:06.792Z,20.70
2022-08-19T10:43:10.991Z,20.87
2022-08-19T10:46:16.953Z,21.87
2022-08-19T10:49:20.718Z,20.23
2022-08-19T10:52:39.073Z,20.93
2022-08-19T10:55:59.618Z,20.73
2022-08-19T10:59:08.326Z,20.67
2022-08-19T11:02:13.918Z,19.23
2022-08-19T11:05:18.625Z,20.63
2022-08-19T11:08:22.962Z,22.77
2022-08-19T11:11:26.900Z,21.07
2022-08-19T11:14:34.037Z,21.47
2022-08-19T11:17:41.473Z,20.40
2022-08-19T11:20:44.366Z,19.80
2022-08-19T11:23:49.392Z,23.03
2022-08-19T11:26:57.802Z,21.67
2022-08-19T11:30:04.593Z,21.00
2022-08-19T11:33:13.076Z,19.87
2022-08-19T11:36:17.053Z,21.20
2022-08-19T11:39:23.657Z,18.97
2022-08-19T11:42:44.115Z,20.53
2022-08-19T11:45:49.137Z,19.90
2022-08-19T11:48:52.067Z,20.13
2022-08-19T11:51:55.221Z,20.63
2022-08-19T11:54:58.542Z,18.50
2022-08-19T11:58:01.387Z,18.43
2022-08-19T12:01:12.064Z,18.43
2022-08-19T12:04:15.141Z,16.10
2022-08-19T12:07:19.124Z,15.77
2022-08-19T12:10:26.185Z,17.07
2022-08-19T12:13:29.740Z,15.53
2022-08-19T12:16:34.243Z,15.00
2022-08-19T12:19:40.365Z,16.90
2022-08-19T12:22:43.500Z,15.17
2022-08-19T12:25:50.985Z,15.03
2022-08-19T12:28:53.916Z,15.93
2022-08-19T12:32:04.053Z,15.20
2022-08-19T12:35:10.084Z,15.37
2022-08-19T12:38:13.598Z,14.93
2022-08-19T12:41:19.303Z,13.70
2022-08-19T12:44:29.348Z,14.40
2022-08-19T12:47:38.018Z,12.90
2022-08-19T12:50:47.709Z,13.30
2022-08-19T12:53:53.621Z,12.50
2022-08-19T12:57:00.399Z,13.73
2022-08-19T13:00:11.499Z,13.50
2022-08-19T13:03:16.079Z,13.63
2022-08-19T13:06:22.498Z,13.70
2022-08-19T13:09:25.332Z,14.63
2022-08-19T13:12:28.401Z,14.00
2022-08-19T13:15:32.106Z,13.83
2022-08-19T13:18:36.308Z,14.37
2022-08-19T13:21:39.445Z,15.43
2022-08-19T13:24:46.954Z,14.97
2022-08-19T13:27:52.112Z,15.13
2022-08-19T13:31:12.641Z,15.07
2022-08-19T13:34:18.276Z,15.47
2022-08-19T13:37:42.004Z,14.90
2022-08-19T13:40:44.909Z,15.10
2022-08-19T13:43:54.122Z,15.00
2022-08-19T13:47:02.182Z,15.70
2022-08-19T13:50:07.305Z,15.37
2022-08-19T13:53:11.302Z,15.33
2022-08-19T13:56:17.236Z,15.60
2022-08-19T13:59:20.150Z,14.67
2022-08-19T14:02:23.144Z,14.57
2022-08-19T14:05:29.398Z,15.30
2022-08-19T14:08:33.537Z,15.77
2022-08-19T14:11:36.353Z,15.03
2022-08-19T14:14:40.003Z,17.13
2022-08-19T14:17:44.808Z,16.10
2022-08-19T14:20:49.078Z,16.20
2022-08-19T14:23:52.450Z,16.43
2022-08-19T14:26:55.427Z,16.57
2022-08-19T14:29:58.571Z,16.37
2022-08-19T14:33:03.332Z,15.30
2022-08-19T14:36:08.424Z,15.17
2022-08-19T14:39:11.448Z,15.97
2022-08-19T14:42:15.479Z,14.33
2022-08-19T14:45:18.429Z,13.63
2022-08-19T14:48:24.265Z,15.70
2022-08-19T14:51:33.958Z,16.03
2022-08-19T14:54:36.796Z,14.43
2022-08-19T14:57:42.119Z,15.90
2022-08-19T15:00:48.487Z,13.90
2022-08-19T15:03:53.886Z,15.47
2022-08-19T15:06:58.124Z,15.13
2022-08-19T15:10:01.460Z,15.90
2022-08-19T15:13:04.402Z,14.80
2022-08-19T15:16:07.979Z,12.90
2022-08-19T15:19:21.215Z,13.47
2022-08-19T15:22:25.464Z,12.33
2022-08-19T15:25:29.367Z,13.33
2022-08-19T15:28:32.212Z,13.00
2022-08-19T15:31:40.850Z,13.00
2022-08-19T15:34:44.161Z,13.77
2022-08-19T15:37:52.198Z,13.80
2022-08-19T15:41:16.126Z,12.43
2022-08-19T15:44:22.205Z,14.47
2022-08-19T15:47:26.709Z,14.10
2022-08-19T15:50:32.841Z,13.23
2022-08-19T15:53:37.127Z,12.50
2022-08-19T15:56:58.631Z,12.47
2022-08-19T16:00:19.230Z,12.57
2022-08-19T16:03:40.133Z,12.43
2022-08-19T16:06:47.058Z,13.13
2022-08-19T16:09:51.502Z,11.10
2022-08-19T16:12:54.719Z,11.60
2022-08-19T16:15:58.873Z,13.43
2022-08-19T16:19:06.130Z,13.40
2022-08-19T16:22:13.634Z,15.00
2022-08-19T16:25:17.958Z,13.97
2022-08-19T16:28:22.801Z,15.03
2022-08-19T16:31:26.968Z,15.50
2022-08-19T16:34:29.966Z,15.27
2022-08-19T16:37:34.358Z,13.83
2022-08-19T16:40:38.735Z,15.57
2022-08-19T16:43:42.540Z,14.57
2022-08-19T16:46:57.256Z,15.13
2022-08-19T16:50:02.282Z,14.00
2022-08-19T16:53:07.861Z,14.27
2022-08-19T16:56:12.902Z,14.53
2022-08-19T16:59:16.572Z,15.10
2022-08-19T17:02:19.979Z,14.53
2022-08-19T17:05:23.068Z,13.97
2022-08-19T17:08:27.970Z,15.00
2022-08-19T17:11:33.673Z,14.50
2022-08-19T17:14:36.645Z,14.07
2022-08-19T17:17:40.083Z,14.37
2022-08-19T17:20:46.896Z,14.07
2022-08-19T17:23:50.475Z,14.97
2022-08-19T17:26:54.678Z,14.47
2022-08-19T17:29:59.770Z,14.03
2022-08-19T17:33:12.240Z,14.40
2022-08-19T17:36:15.111Z,14.20
2022-08-19T17:39:17.975Z,12.07
2022-08-19T17:42:23.827Z,13.20
2022-08-19T17:45:27.346Z,12.10
2022-08-19T17:48:30.533Z,12.00
2022-08-19T17:51:43.013Z,12.47
2022-08-19T17:54:58.126Z,10.53
2022-08-19T17:58:05.247Z,10.27
2022-08-19T18:01:12.894Z,9.73
2022-08-19T18:04:16.957Z,9.73
2022-08-19T18:07:21.576Z,11.30
2022-08-19T18:10:26.909Z,9.63
2022-08-19T18:13:40.639Z,9.30
2022-08-19T18:16:44.939Z,9.60
2022-08-19T18:19:48.853Z,9.77
2022-08-19T18:22:51.923Z,10.13
2022-08-19T18:25:54.901Z,10.00
2022-08-19T18:28:59.239Z,10.07
2022-08-19T18:32:03.594Z,10.73
2022-08-19T18:35:11.112Z,10.37
2022-08-19T18:42:17.423Z,11.30
2022-08-19T18:45:39.099Z,10.43
2022-08-19T18:49:04.281Z,11.67
2022-08-19T18:52:07.226Z,11.33
2022-08-19T18:55:10.670Z,11.10
2022-08-19T18:58:13.807Z,11.17
2022-08-19T19:01:22.126Z,11.23
2022-08-19T19:04:28.308Z,11.30
2022-08-19T19:07:31.155Z,12.40
2022-08-19T19:10:35.395Z,11.53
2022-08-19T19:13:39.680Z,13.27
2022-08-19T19:16:45.784Z,14.73
2022-08-19T19:19:59.030Z,13.53
2022-08-19T19:23:01.880Z,13.47
2022-08-19T19:26:04.901Z,14.03
2022-08-19T19:29:09.411Z,14.27
2022-08-19T19:32:21.492Z,14.47
2022-08-19T19:35:24.559Z,14.67
2022-08-19T19:38:27.502Z,15.00
2022-08-19T19:41:35.539Z,15.30
2022-08-19T19:44:40.115Z,16.07
2022-08-19T19:47:51.658Z,15.43
2022-08-19T19:50:56.184Z,15.40
2022-08-19T19:54:00.005Z,15.70
2022-08-19T19:57:02.902Z,17.47
2022-08-19T20:00:07.153Z,18.00
2022-08-19T20:03:11.369Z,18.83
2022-08-19T20:06:15.864Z,18.27
2022-08-19T20:09:19.869Z,16.97
2022-08-19T20:12:24.351Z,18.27
2022-08-19T20:15:28.459Z,17.73
2022-08-19T20:18:32.754Z,21.00
2022-08-19T20:21:48.525Z,20.50
2022-08-19T20:24:54.974Z,21.03
2022-08-19T20:27:57.872Z,21.73
2022-08-19T20:31:01.217Z,20.97
2022-08-19T20:34:07.360Z,21.67
2022-08-19T20:37:11.805Z,22.67
2022-08-19T20:40:16.161Z,21.03
2022-08-19T20:43:24.653Z,20.20
2022-08-19T20:46:28.571Z,22.17
2022-08-19T20:49:33.453Z,22.47
2022-08-19T20:52:37.625Z,20.30
2022-08-19T20:55:41.010Z,19.53
2022-08-19T20:58:49.890Z,20.03
2022-08-19T21:01:57.435Z,19.87
2022-08-19T21:05:01.785Z,18.67
2022-08-19T21:08:15.617Z,17.83
2022-08-19T21:11:20.719Z,17.60
2022-08-19T21:14:23.813Z,18.53
2022-08-19T21:17:26.761Z,17.57
2022-08-19T21:20:30.921Z,17.43
2022-08-19T21:23:33.893Z,19.77
2022-08-19T21:26:36.748Z,20.17
2022-08-19T21:29:40.608Z,18.00
2022-08-19T21:32:43.495Z,14.90
2022-08-19T21:35:48.124Z,16.10
2022-08-19T21:38:51.071Z,14.10
2022-08-19T21:41:54.002Z,13.77
2022-08-19T21:44:57.049Z,15.07
2022-08-19T21:47:59.953Z,15.13
2022-08-19T21:51:04.290Z,14.70
2022-08-19T21:54:07.942Z,14.30
2022-08-19T21:57:17.245Z,13.30
2022-08-19T22:00:22.498Z,14.40
2022-08-19T22:03:25.706Z,14.30
2022-08-19T22:06:30.076Z,16.20
2022-08-19T22:09:32.928Z,15.80
2022-08-19T22:12:39.401Z,16.40
2022-08-19T22:15:57.446Z,17.53
2022-08-19T22:19:03.377Z,21.40
2022-08-19T22:22:07.993Z,20.97
2022-08-19T22:25:31.575Z,22.00
2022-08-19T22:28:35.002Z,22.43
2022-08-19T22:31:38.360Z,24.37
2022-08-19T22:34:42.629Z,22.60
2022-08-19T22:37:48.387Z,22.27
2022-08-19T22:40:52.272Z,24.23
2022-08-19T22:43:55.586Z,23.07
2022-08-19T22:46:58.475Z,22.17
2022-08-19T22:50:01.366Z,22.27
2022-08-19T22:53:09.278Z,22.10
2022-08-19T22:56:15.512Z,22.13
2022-08-19T22:59:18.738Z,21.97
2022-08-19T23:02:23.285Z,24.57
2022-08-19T23:05:28.966Z,25.13
2022-08-19T23:08:33.187Z,25.07
2022-08-19T23:11:38.151Z,22.77
2022-08-19T23:14:46.314Z,24.90
2022-08-19T23:17:50.204Z,23.33
2022-08-19T23:20:54.611Z,24.67
2022-08-19T23:23:58.840Z,29.07
2022-08-19T23:27:19.398Z,26.87
2022-08-19T23:30:30.054Z,27.77
2022-08-19T23:33:41.097Z,28.03
2022-08-19T23:37:01.977Z,24.33
2022-08-19T23:40:08.916Z,24.63
2022-08-19T23:43:16.965Z,23.37
2022-08-19T23:46:28.428Z,23.87
2022-08-19T23:49:33.091Z,24.93
2022-08-19T23:52:52.589Z,24.53
2022-08-19T23:55:57.446Z,27.70
2022-08-19T23:59:03.394Z,29.43
